Time;durP1;ratioP1;P1;durP2;ratioP2;P2;SDS_P1;SDS_P2;PMS_P1;PMS_P2;Temp;Humidity;BMP_temperature;BMP_pressure;BME280_temperature;BME280_humidity;BME280_pressure;Samples;Min_cycle;Max_cycle;Signal;HPM_P1;HPM_P2
2023/05/01 00:00:33;;;;;;;1.65;1.55;;;9.90;85.70;;;;;;5024851;28;20085;-80
2023/05/01 00:02:58;;;;;;;1.60;1.35;;;9.90;85.90;;;;;;5028323;28;20094;-81
2023/05/01 00:05:24;;;;;;;1.50;1.40;;;9.90;86.10;;;;;;5034667;28;20041;-80
2023/05/01 00:07:50;;;;;;;2.03;1.88;;;9.90;86.90;;;;;;5036961;28;20034;-80
2023/05/01 00:10:16;;;;;;;1.73;1.33;;;9.90;86.30;;;;;;5036948;28;20018;-79
2023/05/01 00:12:41;;;;;;;3.92;2.05;;;9.80;86.30;;;;;;5036432;28;20026;-80
2023/05/01 00:15:08;;;;;;;2.30;1.80;;;9.90;86.30;;;;;;5035794;28;20064;-79
2023/05/01 00:17:33;;;;;;;2.97;2.08;;;9.80;86.90;;;;;;5035377;28;20085;-81
2023/05/01 00:19:59;;;;;;;2.95;2.20;;;9.80;86.20;;;;;;5036263;28;20018;-80
2023/05/01 00:22:25;;;;;;;2.20;2.00;;;9.80;86.40;;;;;;5025598;28;20458;-80
2023/05/01 00:24:51;;;;;;;2.60;1.60;;;9.80;86.50;;;;;;5021229;28;20422;-80
2023/05/01 00:27:16;;;;;;;4.75;2.03;;;9.80;86.70;;;;;;5018819;28;20082;-80
2023/05/01 00:29:42;;;;;;;1.80;1.70;;;9.80;86.80;;;;;;5018934;28;20140;-80
2023/05/01 00:32:08;;;;;;;2.30;2.10;;;9.80;86.90;;;;;;5018366;28;20026;-80
2023/05/01 00:34:34;;;;;;;2.58;1.80;;;9.70;87.10;;;;;;5020130;28;20030;-80
2023/05/01 00:37:00;;;;;;;2.03;1.83;;;9.70;87.20;;;;;;5025958;28;20042;-80
2023/05/01 00:39:25;;;;;;;2.72;1.88;;;9.70;87.40;;;;;;5039496;28;20022;-79
2023/05/01 00:41:51;;;;;;;1.70;1.60;;;9.60;87.60;;;;;;5027662;28;20022;-79
2023/05/01 00:44:17;;;;;;;2.20;1.88;;;9.60;87.90;;;;;;5022721;28;20056;-81
2023/05/01 00:46:43;;;;;;;1.65;1.52;;;9.60;88.10;;;;;;5022214;28;20097;-80
2023/05/01 00:49:09;;;;;;;1.98;1.77;;;9.50;88.30;;;;;;5021961;28;20037;-80
2023/05/01 00:51:35;;;;;;;1.92;1.33;;;9.50;88.60;;;;;;5022271;28;20121;-80
2023/05/01 00:54:02;;;;;;;1.02;1.00;;;9.40;88.80;;;;;;5022348;28;20056;-80
2023/05/01 00:56:29;;;;;;;1.52;1.13;;;9.40;89.00;;;;;;5022304;28;20034;-82
2023/05/01 00:58:55;;;;;;;1.38;1.20;;;9.40;89.40;;;;;;5020771;28;20030;-81
2023/05/01 01:01:21;;;;;;;1.30;1.20;;;9.40;89.40;;;;;;5022885;28;20029;-80
2023/05/01 01:03:47;;;;;;;1.38;1.27;;;9.30;89.50;;;;;;5021504;28;20054;-80
2023/05/01 01:06:19;;;;;;;1.65;1.30;;;9.30;89.80;;;;;;5021078;28;20084;-81
2023/05/01 01:08:53;;;;;;;1.40;1.30;;;9.20;90.00;;;;;;5021290;28;20026;-81
2023/05/01 01:11:52;;;;;;;1.55;1.45;;;9.20;90.30;;;;;;5021049;28;20037;-80
2023/05/01 01:14:26;;;;;;;1.52;1.42;;;9.20;90.50;;;;;;5020788;28;20022;-80
2023/05/01 01:17:12;;;;;;;1.73;1.33;;;9.10;90.70;;;;;;5022730;28;20049;-80
2023/05/01 01:20:09;;;;;;;1.92;1.80;;;9.00;90.80;;;;;;5021310;28;20426;-80
2023/05/01 01:22:38;;;;;;;2.17;1.67;;;9.00;91.00;;;;;;5004145;28;20081;-79
2023/05/01 01:25:44;;;;;;;1.67;1.58;;;9.00;91.10;;;;;;5015833;28;20026;-79
2023/05/01 01:28:24;;;;;;;2.25;1.48;;;8.90;91.30;;;;;;5001260;28;20061;-80
2023/05/01 01:31:16;;;;;;;1.42;1.23;;;8.90;91.50;;;;;;5013529;28;20034;-81
2023/05/01 01:33:57;;;;;;;1.67;1.58;;;8.80;91.60;;;;;;5001362;28;20046;-80
2023/05/01 01:36:29;;;;;;;2.22;2.03;;;8.80;91.80;;;;;;5016124;28;20038;-80
2023/05/01 01:39:07;;;;;;;1.50;1.40;;;8.80;92.00;;;;;;5000273;28;20027;-80
2023/05/01 01:41:35;;;;;;;1.50;1.40;;;8.70;92.10;;;;;;5016560;28;20128;-79
2023/05/01 01:44:11;;;;;;;2.05;1.80;;;8.70;92.30;;;;;;5019653;28;20025;-80
2023/05/01 01:46:39;;;;;;;2.00;1.90;;;8.60;92.40;;;;;;5026807;28;20118;-80
2023/05/01 01:49:10;;;;;;;3.70;2.80;;;8.60;92.60;;;;;;5028829;28;20037;-79
2023/05/01 01:51:38;;;;;;;2.90;2.60;;;8.60;92.80;;;;;;5026483;28;20381;-81
2023/05/01 01:54:05;;;;;;;2.65;2.45;;;8.60;93.00;;;;;;5019333;28;20025;-80
2023/05/01 01:56:33;;;;;;;3.22;2.60;;;8.50;93.10;;;;;;5029602;28;20053;-80
2023/05/01 01:59:01;;;;;;;3.83;2.70;;;8.50;93.20;;;;;;5032811;28;20034;-80
2023/05/01 02:01:28;;;;;;;4.07;2.78;;;8.50;93.30;;;;;;5035731;28;20079;-80
2023/05/01 02:03:55;;;;;;;4.15;3.22;;;8.50;93.40;;;;;;5017542;28;20055;-80
2023/05/01 02:06:22;;;;;;;3.30;2.72;;;8.50;93.50;;;;;;5018054;28;20448;-80
2023/05/01 02:08:48;;;;;;;3.28;2.60;;;8.50;93.60;;;;;;5016526;28;20495;-80
2023/05/01 02:11:19;;;;;;;2.83;2.63;;;8.40;93.70;;;;;;5033636;28;20030;-80
2023/05/01 02:13:46;;;;;;;3.40;2.70;;;8.40;93.70;;;;;;5025794;28;20037;-80
2023/05/01 02:16:13;;;;;;;3.20;2.72;;;8.40;93.80;;;;;;5020056;28;20041;-80
2023/05/01 02:18:40;;;;;;;2.78;2.40;;;8.40;94.00;;;;;;5020996;28;20032;-80
2023/05/01 02:21:06;;;;;;;2.47;2.25;;;8.40;94.10;;;;;;5037778;28;20376;-80
2023/05/01 02:23:32;;;;;;;3.38;2.47;;;8.30;94.20;;;;;;5020149;28;20092;-80
2023/05/01 02:26:02;;;;;;;2.53;2.15;;;8.30;94.30;;;;;;5018541;28;20105;-80
2023/05/01 02:28:29;;;;;;;2.95;2.28;;;8.30;94.50;;;;;;5017920;28;20137;-80
2023/05/01 02:30:56;;;;;;;2.10;1.88;;;8.30;94.60;;;;;;5018771;28;20021;-80
2023/05/01 02:33:22;;;;;;;1.90;1.80;;;8.30;94.70;;;;;;5018973;28;20026;-80
2023/05/01 02:35:48;;;;;;;1.73;1.60;;;8.30;94.90;;;;;;5020279;28;20111;-80
2023/05/01 02:38:15;;;;;;;2.03;1.65;;;8.30;95.00;;;;;;5020477;28;20021;-80
2023/05/01 02:40:45;;;;;;;1.63;1.45;;;8.30;95.10;;;;;;5026677;28;20022;-79
2023/05/01 02:43:15;;;;;;;1.40;1.25;;;8.30;95.10;;;;;;5034785;28;20089;-81
2023/05/01 02:45:41;;;;;;;1.63;1.52;;;8.30;95.30;;;;;;5015391;28;20053;-81
2023/05/01 02:48:11;;;;;;;1.38;1.27;;;8.30;95.30;;;;;;5014705;28;20037;-80
2023/05/01 02:50:39;;;;;;;2.60;1.10;;;8.30;95.40;;;;;;5009517;28;20022;-80
2023/05/01 02:53:06;;;;;;;1.35;1.25;;;8.30;95.40;;;;;;5012620;28;20019;-80
2023/05/01 02:55:32;;;;;;;1.33;1.10;;;8.30;95.30;;;;;;5008602;28;20026;-79
2023/05/01 02:57:58;;;;;;;1.85;1.65;;;8.20;95.30;;;;;;5002162;28;20111;-80
2023/05/01 03:00:27;;;;;;;1.10;1.10;;;8.20;95.40;;;;;;5000003;28;20431;-80
2023/05/01 03:02:53;;;;;;;1.42;1.33;;;8.20;95.50;;;;;;5020229;28;20026;-80
2023/05/01 03:05:25;;;;;;;1.52;1.25;;;8.10;95.60;;;;;;5033037;28;20057;-80
2023/05/01 03:07:51;;;;;;;1.30;1.20;;;8.20;95.80;;;;;;5010658;28;20049;-80
2023/05/01 03:10:17;;;;;;;1.63;1.52;;;8.10;95.80;;;;;;5018312;28;20105;-80
2023/05/01 03:12:43;;;;;;;1.38;1.27;;;8.10;95.70;;;;;;5017234;28;20637;-81
2023/05/01 03:15:11;;;;;;;1.30;1.20;;;8.10;95.80;;;;;;5009198;28;20069;-80
2023/05/01 03:17:40;;;;;;;1.20;1.10;;;8.10;95.90;;;;;;5017485;28;20359;-81
2023/05/01 03:20:06;;;;;;;1.50;1.33;;;8.10;95.90;;;;;;5037069;23;20037;-76
2023/05/01 03:22:34;;;;;;;1.35;1.25;;;8.10;96.10;;;;;;5047695;28;20037;-76
2023/05/01 03:25:00;;;;;;;1.48;1.20;;;8.10;96.20;;;;;;5018924;28;20072;-76
2023/05/01 03:27:26;;;;;;;1.00;1.00;;;8.10;96.30;;;;;;4994283;28;20084;-76
2023/05/01 03:29:52;;;;;;;1.00;1.00;;;8.10;96.30;;;;;;5012984;28;20030;-76
2023/05/01 03:32:24;;;;;;;1.00;1.00;;;8.10;96.30;;;;;;4996251;28;20101;-76
2023/05/01 03:34:49;;;;;;;0.75;0.75;;;8.10;96.40;;;;;;5013150;28;20030;-76
2023/05/01 03:37:15;;;;;;;1.08;1.05;;;8.00;96.60;;;;;;5013159;28;20058;-75
2023/05/01 03:39:41;;;;;;;0.85;0.85;;;8.00;96.70;;;;;;5015574;28;20148;-74
2023/05/01 03:42:06;;;;;;;0.93;0.90;;;8.00;96.90;;;;;;5026873;28;20030;-76
2023/05/01 03:44:32;;;;;;;0.85;0.85;;;8.00;97.00;;;;;;5030834;28;20147;-73
2023/05/01 03:46:58;;;;;;;0.90;0.90;;;8.00;97.10;;;;;;5031682;28;20033;-73
2023/05/01 03:49:24;;;;;;;0.70;0.70;;;8.00;97.20;;;;;;5031174;28;20036;-73
2023/05/01 03:51:50;;;;;;;1.00;0.93;;;8.00;97.30;;;;;;5030954;28;20386;-73
2023/05/01 03:54:15;;;;;;;1.35;0.68;;;8.00;97.30;;;;;;5026630;28;20022;-73
2023/05/01 03:56:41;;;;;;;0.77;0.77;;;8.10;97.30;;;;;;5011268;28;20021;-73
2023/05/01 03:59:07;;;;;;;0.68;0.68;;;8.10;97.30;;;;;;5011066;28;20022;-73
2023/05/01 04:01:32;;;;;;;1.00;1.00;;;8.10;97.20;;;;;;5010929;28;20112;-73
2023/05/01 04:03:58;;;;;;;0.95;0.95;;;8.10;97.20;;;;;;5008673;28;20029;-72
2023/05/01 04:06:24;;;;;;;1.10;1.08;;;8.10;97.10;;;;;;5018032;28;20029;-75
2023/05/01 04:08:50;;;;;;;1.10;1.00;;;8.10;97.10;;;;;;5014989;28;20018;-73
2023/05/01 04:11:16;;;;;;;1.30;1.20;;;8.10;97.10;;;;;;5001580;28;20045;-72
2023/05/01 04:13:41;;;;;;;1.00;0.93;;;8.10;97.20;;;;;;5023505;28;20026;-74
2023/05/01 04:16:07;;;;;;;1.10;1.10;;;8.10;97.20;;;;;;5029442;28;20030;-73
2023/05/01 04:18:33;;;;;;;1.35;1.25;;;8.10;97.20;;;;;;5015203;28;20018;-74
2023/05/01 04:20:58;;;;;;;1.98;1.77;;;8.10;97.30;;;;;;5014724;28;20503;-73
2023/05/01 04:23:24;;;;;;;1.95;1.30;;;8.10;97.40;;;;;;4997379;28;20107;-74
2023/05/01 04:25:50;;;;;;;2.03;1.80;;;8.10;97.40;;;;;;4996275;28;20431;-73
2023/05/01 04:28:15;;;;;;;1.23;1.20;;;8.10;97.40;;;;;;4997169;28;20125;-74
2023/05/01 04:30:41;;;;;;;1.60;1.50;;;8.10;97.40;;;;;;5014914;28;20034;-74
2023/05/01 04:33:10;;;;;;;1.35;1.27;;;8.10;97.50;;;;;;5016126;28;20172;-75
2023/05/01 04:35:41;;;;;;;1.35;1.25;;;8.20;97.50;;;;;;5015297;28;20336;-76
2023/05/01 04:38:09;;;;;;;1.38;1.27;;;8.30;97.60;;;;;;5018024;28;20033;-76
2023/05/01 04:40:34;;;;;;;1.38;1.27;;;8.30;97.50;;;;;;5029781;28;20010;-76
2023/05/01 04:43:00;;;;;;;1.60;1.50;;;8.40;97.50;;;;;;5038888;28;20077;-74
2023/05/01 04:45:26;;;;;;;1.85;1.60;;;8.40;97.20;;;;;;5041992;28;20022;-74
2023/05/01 04:47:51;;;;;;;1.67;1.58;;;8.50;97.10;;;;;;5028163;28;20120;-75
2023/05/01 04:50:17;;;;;;;1.95;1.40;;;8.60;97.00;;;;;;5022903;28;20048;-74
2023/05/01 04:52:43;;;;;;;1.65;1.55;;;8.70;96.80;;;;;;5006150;28;20038;-75
2023/05/01 04:55:09;;;;;;;2.10;1.90;;;8.80;96.70;;;;;;5028351;28;20018;-74
2023/05/01 04:57:35;;;;;;;1.80;1.70;;;8.90;96.30;;;;;;5013726;28;20084;-74
2023/05/01 05:00:02;;;;;;;2.60;2.15;;;9.10;95.80;;;;;;5015633;28;20018;-75
2023/05/01 05:02:27;;;;;;;2.28;2.08;;;9.10;95.50;;;;;;4998572;28;20120;-76
2023/05/01 05:04:53;;;;;;;3.00;2.35;;;9.10;95.40;;;;;;5016215;28;20052;-79
2023/05/01 05:07:19;;;;;;;3.13;2.53;;;9.20;95.30;;;;;;5016165;28;20049;-77
2023/05/01 05:09:45;;;;;;;2.72;2.53;;;9.20;95.10;;;;;;5033990;28;20378;-76
2023/05/01 05:12:11;;;;;;;3.35;2.97;;;9.30;95.00;;;;;;5034985;28;20018;-77
2023/05/01 05:14:37;;;;;;;2.60;2.30;;;9.40;94.90;;;;;;5026480;28;20029;-76
2023/05/01 05:17:02;;;;;;;2.65;2.45;;;9.50;94.60;;;;;;5014346;28;20022;-76
2023/05/01 05:19:28;;;;;;;2.30;2.10;;;9.50;94.50;;;;;;5016461;28;20025;-77
2023/05/01 05:21:54;;;;;;;2.67;2.40;;;9.60;94.50;;;;;;5016189;28;20033;-77
2023/05/01 05:24:19;;;;;;;2.58;2.38;;;9.70;93.90;;;;;;4997766;28;20034;-77
2023/05/01 05:26:45;;;;;;;2.40;2.13;;;9.90;93.90;;;;;;5016666;28;20390;-77
2023/05/01 05:29:10;;;;;;;3.63;2.55;;;10.00;93.70;;;;;;5024911;28;20026;-78
2023/05/01 05:31:36;;;;;;;2.13;2.00;;;10.20;93.00;;;;;;5017204;28;20078;-77
2023/05/01 05:34:02;;;;;;;2.60;2.40;;;10.30;92.50;;;;;;5015502;28;20022;-77
2023/05/01 05:36:28;;;;;;;1.80;1.70;;;10.50;92.20;;;;;;4997781;28;20439;-76
2023/05/01 05:38:54;;;;;;;1.90;1.60;;;10.60;92.10;;;;;;5015632;28;20045;-76
2023/05/01 05:41:20;;;;;;;1.83;1.38;;;10.80;91.70;;;;;;5021608;28;20382;-77
2023/05/01 05:43:46;;;;;;;1.67;1.40;;;11.00;91.60;;;;;;5020194;28;20386;-77
2023/05/01 05:46:11;;;;;;;1.20;1.10;;;11.20;91.20;;;;;;5036924;28;20021;-77
2023/05/01 05:48:37;;;;;;;1.27;1.17;;;11.50;90.60;;;;;;5034239;28;20664;-76
2023/05/01 05:51:03;;;;;;;1.35;1.30;;;11.70;89.40;;;;;;5036200;28;20032;-76
2023/05/01 05:53:29;;;;;;;2.70;2.13;;;11.60;88.20;;;;;;5038900;28;20037;-76
2023/05/01 05:55:55;;;;;;;3.08;2.20;;;11.50;88.10;;;;;;5035788;28;20193;-76
2023/05/01 05:58:22;;;;;;;2.10;1.90;;;11.30;88.40;;;;;;5017950;28;20037;-75
2023/05/01 06:00:48;;;;;;;1.55;1.45;;;11.30;89.00;;;;;;5017697;28;20033;-76
2023/05/01 06:03:14;;;;;;;1.83;1.50;;;11.40;88.90;;;;;;5015099;28;20391;-77
2023/05/01 06:05:41;;;;;;;1.33;1.20;;;11.60;89.10;;;;;;5013283;28;20111;-77
2023/05/01 06:08:09;;;;;;;1.00;1.00;;;11.70;87.50;;;;;;5015164;28;20033;-76
2023/05/01 06:10:36;;;;;;;1.13;1.13;;;11.80;86.70;;;;;;5015813;28;20199;-77
2023/05/01 06:13:02;;;;;;;1.00;1.00;;;11.90;86.20;;;;;;5028938;28;20029;-76
2023/05/01 06:15:28;;;;;;;0.93;0.93;;;12.00;85.40;;;;;;5028945;28;20025;-76
2023/05/01 06:17:54;;;;;;;0.95;0.95;;;12.10;85.00;;;;;;5034188;28;20021;-78
2023/05/01 06:20:19;;;;;;;0.80;0.80;;;12.20;84.60;;;;;;5035199;28;20033;-77
2023/05/01 06:22:45;;;;;;;0.98;0.98;;;12.30;83.40;;;;;;5018281;28;20018;-77
2023/05/01 06:25:11;;;;;;;0.80;0.80;;;12.30;82.80;;;;;;5018038;28;20025;-78
2023/05/01 06:27:37;;;;;;;1.33;1.23;;;12.30;82.40;;;;;;5034621;28;20128;-76
2023/05/01 06:30:03;;;;;;;1.02;1.02;;;12.40;81.80;;;;;;5034473;28;20459;-77
2023/05/01 06:32:29;;;;;;;1.00;0.85;;;12.40;82.20;;;;;;5016759;28;20021;-78
2023/05/01 06:34:56;;;;;;;0.90;0.90;;;12.40;81.60;;;;;;5005804;28;20075;-77
2023/05/01 06:37:22;;;;;;;1.17;0.90;;;12.50;82.00;;;;;;5028825;28;20036;-76
2023/05/01 06:39:47;;;;;;;0.82;0.82;;;12.70;81.80;;;;;;5024163;28;20030;-77
2023/05/01 06:42:15;;;;;;;0.82;0.82;;;12.90;80.60;;;;;;5023012;28;20071;-77
2023/05/01 06:44:41;;;;;;;1.05;1.00;;;12.90;79.90;;;;;;5029325;28;20025;-76
2023/05/01 06:47:07;;;;;;;0.90;0.90;;;13.00;79.40;;;;;;5026112;28;20025;-76
2023/05/01 06:49:32;;;;;;;1.00;1.00;;;13.00;79.30;;;;;;5033989;28;20497;-77
2023/05/01 06:51:58;;;;;;;1.17;1.15;;;13.00;79.00;;;;;;5034144;28;20557;-78
2023/05/01 06:54:25;;;;;;;0.82;0.82;;;13.10;79.60;;;;;;5017576;28;20108;-77
2023/05/01 06:56:52;;;;;;;1.00;1.00;;;13.20;78.80;;;;;;5026617;28;20049;-78
2023/05/01 06:59:18;;;;;;;0.82;0.82;;;13.30;78.00;;;;;;5036974;28;20026;-78
2023/05/01 07:01:44;;;;;;;0.73;0.73;;;13.30;77.80;;;;;;5034814;28;20148;-77
2023/05/01 07:04:09;;;;;;;1.00;1.00;;;13.30;77.50;;;;;;5032526;28;20029;-76
2023/05/01 07:06:36;;;;;;;1.17;1.08;;;13.40;77.50;;;;;;5016919;28;20056;-78
2023/05/01 07:09:04;;;;;;;1.13;1.13;;;13.50;76.90;;;;;;5019532;28;20035;-77
2023/05/01 07:11:31;;;;;;;1.02;1.02;;;13.50;76.40;;;;;;5008156;28;20083;-76
2023/05/01 07:14:00;;;;;;;1.90;1.30;;;13.60;76.70;;;;;;5025154;28;20017;-76
2023/05/01 07:16:32;;;;;;;1.55;1.30;;;13.50;76.50;;;;;;5034692;28;20018;-77
2023/05/01 07:18:58;;;;;;;1.52;1.23;;;13.50;76.90;;;;;;5036947;28;20017;-77
2023/05/01 07:21:24;;;;;;;0.90;0.90;;;13.60;76.90;;;;;;5033012;28;20573;-77
2023/05/01 07:23:49;;;;;;;0.75;0.75;;;13.70;75.90;;;;;;5033090;28;20029;-76
2023/05/01 07:26:15;;;;;;;1.13;0.93;;;13.80;76.00;;;;;;5038420;28;20075;-77
2023/05/01 07:28:41;;;;;;;1.10;1.00;;;13.80;76.10;;;;;;5042128;28;20284;-77
2023/05/01 07:31:09;;;;;;;1.45;1.40;;;13.90;75.60;;;;;;5019384;28;20470;-76
2023/05/01 07:33:37;;;;;;;0.90;0.90;;;14.00;75.00;;;;;;5036604;28;20025;-76
2023/05/01 07:36:06;;;;;;;1.30;1.30;;;14.10;74.80;;;;;;5037408;28;20028;-77
2023/05/01 07:38:32;;;;;;;1.50;1.40;;;14.20;74.40;;;;;;5038368;28;20017;-77
2023/05/01 07:40:58;;;;;;;1.35;1.25;;;14.30;73.50;;;;;;5035520;28;20064;-76
2023/05/01 07:43:23;;;;;;;2.28;1.40;;;14.40;73.70;;;;;;5027802;28;20041;-76
2023/05/01 07:45:57;;;;;;;2.97;1.80;;;14.50;74.10;;;;;;5031861;28;20533;-76
2023/05/01 07:48:23;;;;;;;2.20;1.85;;;14.60;72.80;;;;;;5036381;28;20029;-76
2023/05/01 07:50:49;;;;;;;2.72;2.50;;;14.70;72.60;;;;;;5035049;28;20104;-76
2023/05/01 07:53:16;;;;;;;2.60;2.40;;;14.80;71.80;;;;;;5037530;28;20051;-76
2023/05/01 07:55:41;;;;;;;2.33;2.13;;;14.80;71.60;;;;;;5037406;28;20025;-76
2023/05/01 07:58:07;;;;;;;2.38;2.17;;;14.80;71.50;;;;;;5050414;28;20037;-76
2023/05/01 08:00:34;;;;;;;2.38;2.28;;;14.90;71.30;;;;;;5029799;28;20099;-76
2023/05/01 08:03:00;;;;;;;2.45;2.22;;;14.80;70.80;;;;;;5015593;28;20026;-76
2023/05/01 08:05:25;;;;;;;1.88;1.60;;;14.80;71.50;;;;;;5018935;28;20044;-77
2023/05/01 08:07:51;;;;;;;3.05;1.88;;;14.90;71.70;;;;;;5041439;28;20048;-77
2023/05/01 08:10:17;;;;;;;2.58;2.33;;;14.90;71.10;;;;;;5038324;28;20021;-80
2023/05/01 08:12:42;;;;;;;2.38;2.10;;;14.80;70.70;;;;;;5028309;28;20163;-76
2023/05/01 08:15:08;;;;;;;2.35;2.13;;;14.70;71.00;;;;;;5013227;28;20410;-78
2023/05/01 08:17:35;;;;;;;2.83;2.22;;;14.50;70.90;;;;;;5014948;28;20419;-77
2023/05/01 08:20:01;;;;;;;2.33;2.15;;;14.40;71.70;;;;;;5015892;28;20079;-77
2023/05/01 08:22:27;;;;;;;2.05;1.80;;;14.30;72.30;;;;;;5032684;28;20152;-77
2023/05/01 08:24:53;;;;;;;3.92;1.70;;;14.30;72.60;;;;;;5033890;28;20056;-77
2023/05/01 08:27:18;;;;;;;1.70;1.60;;;14.20;73.20;;;;;;5034408;28;20437;-77
2023/05/01 08:29:44;;;;;;;3.17;2.70;;;14.20;73.30;;;;;;5034460;28;20083;-77
2023/05/01 08:32:10;;;;;;;2.63;2.42;;;14.10;73.20;;;;;;5033189;28;20025;-77
2023/05/01 08:34:36;;;;;;;3.38;2.45;;;14.00;74.00;;;;;;5035384;28;20140;-78
2023/05/01 08:37:01;;;;;;;2.65;2.38;;;14.00;74.40;;;;;;5033976;28;20037;-77
2023/05/01 08:39:27;;;;;;;2.30;2.10;;;13.90;75.00;;;;;;5026024;28;20159;-76
2023/05/01 08:41:53;;;;;;;3.33;3.03;;;13.90;75.40;;;;;;5022106;28;20033;-76
2023/05/01 08:44:25;;;;;;;2.53;2.20;;;13.90;75.90;;;;;;5023619;28;20104;-77
2023/05/01 08:47:16;;;;;;;2.83;2.00;;;13.80;76.50;;;;;;5033836;28;20049;-77
2023/05/01 08:49:43;;;;;;;2.47;2.28;;;13.80;77.20;;;;;;5035164;28;20044;-77
2023/05/01 08:52:13;;;;;;;4.15;3.00;;;13.90;77.30;;;;;;5037670;28;20103;-77
2023/05/01 08:54:42;;;;;;;5.10;2.90;;;13.80;77.80;;;;;;5034768;28;20425;-77
2023/05/01 08:57:10;;;;;;;3.28;2.78;;;13.90;78.30;;;;;;5036248;28;20025;-78
2023/05/01 08:59:39;;;;;;;4.63;3.65;;;13.80;78.50;;;;;;5037964;28;20083;-78
2023/05/01 09:02:07;;;;;;;4.05;3.20;;;13.80;78.80;;;;;;5036952;28;20032;-77
2023/05/01 09:04:36;;;;;;;6.30;4.00;;;13.70;79.20;;;;;;5038377;28;20049;-78
2023/05/01 09:07:02;;;;;;;3.05;2.75;;;13.70;79.80;;;;;;5038734;28;20029;-77
2023/05/01 09:09:29;;;;;;;2.88;2.58;;;13.70;80.50;;;;;;5035179;28;20025;-77
2023/05/01 09:12:24;;;;;;;2.63;2.42;;;13.80;80.40;;;;;;5015870;28;20509;-77
2023/05/01 09:14:52;;;;;;;2.65;2.45;;;13.90;80.70;;;;;;5026032;28;20025;-77
2023/05/01 09:17:20;;;;;;;2.95;2.30;;;14.00;80.70;;;;;;5034350;28;20064;-76
2023/05/01 09:19:47;;;;;;;4.70;4.20;;;14.00;80.80;;;;;;5035704;28;20028;-78
2023/05/01 09:22:13;;;;;;;3.70;3.33;;;14.00;81.00;;;;;;5035791;28;20073;-76
2023/05/01 09:24:38;;;;;;;4.70;3.63;;;13.90;81.40;;;;;;5035875;28;20078;-77
2023/05/01 09:27:05;;;;;;;6.80;3.85;;;13.90;82.10;;;;;;5029950;28;20108;-76
2023/05/01 09:29:47;;;;;;;4.18;3.17;;;13.80;82.80;;;;;;5019095;28;20446;-78
2023/05/01 09:32:24;;;;;;;4.25;3.85;;;13.90;83.90;;;;;;5027785;28;20033;-75
2023/05/01 09:34:53;;;;;;;4.13;3.67;;;13.90;83.70;;;;;;5036722;28;20081;-76
2023/05/01 09:37:30;;;;;;;4.63;3.75;;;13.90;84.60;;;;;;5036313;28;20017;-76
2023/05/01 09:40:12;;;;;;;5.63;3.63;;;13.90;85.90;;;;;;5036192;28;20034;-76
2023/05/01 09:42:40;;;;;;;5.07;3.83;;;14.00;86.00;;;;;;5021916;28;20032;-77
2023/05/01 09:45:15;;;;;;;3.33;3.03;;;14.10;86.40;;;;;;5048632;28;20061;-78
2023/05/01 09:47:42;;;;;;;5.57;4.68;;;14.00;87.30;;;;;;5034804;28;20026;-78
2023/05/01 09:50:08;;;;;;;4.13;3.72;;;13.90;87.20;;;;;;5011770;28;20136;-79
2023/05/01 09:52:34;;;;;;;5.95;4.32;;;13.70;87.50;;;;;;5024652;28;20089;-77
2023/05/01 09:55:16;;;;;;;4.60;3.83;;;13.50;88.10;;;;;;5027710;28;20034;-77
2023/05/01 09:57:43;;;;;;;4.07;3.63;;;13.40;90.00;;;;;;5003063;28;20112;-79
2023/05/01 10:00:11;;;;;;;6.75;4.65;;;13.30;90.50;;;;;;5021205;28;20131;-78
2023/05/01 10:02:37;;;;;;;5.70;5.10;;;13.20;90.70;;;;;;5020645;28;20050;-80
2023/05/01 10:05:04;;;;;;;5.25;4.72;;;13.10;91.10;;;;;;5021785;28;20045;-78
2023/05/01 10:07:30;;;;;;;6.50;5.38;;;13.10;91.50;;;;;;5020407;28;20021;-80
2023/05/01 10:09:55;;;;;;;5.68;5.10;;;13.00;91.50;;;;;;5019965;28;20040;-80
2023/05/01 10:12:25;;;;;;;5.95;5.32;;;13.10;91.70;;;;;;5034471;28;20467;-78
2023/05/01 10:14:56;;;;;;;6.85;5.85;;;13.00;91.70;;;;;;5031598;28;20022;-81
2023/05/01 10:17:22;;;;;;;5.05;4.55;;;13.10;91.90;;;;;;5034479;28;20022;-78
2023/05/01 10:19:50;;;;;;;5.97;4.70;;;13.10;92.50;;;;;;5040716;28;20097;-79
2023/05/01 10:22:16;;;;;;;4.55;4.03;;;13.30;92.20;;;;;;5037399;28;20442;-79
2023/05/01 10:24:44;;;;;;;8.65;5.78;;;13.30;92.00;;;;;;5039039;28;20104;-77
2023/05/01 10:27:11;;;;;;;6.05;5.40;;;13.10;91.50;;;;;;5022740;28;20036;-78
2023/05/01 10:29:40;;;;;;;8.02;5.03;;;13.00;92.30;;;;;;5039745;28;20075;-78
2023/05/01 10:32:07;;;;;;;5.45;4.90;;;12.90;92.50;;;;;;5045185;28;20308;-77
2023/05/01 10:34:37;;;;;;;9.13;7.32;;;12.80;92.90;;;;;;5034661;28;20022;-77
2023/05/01 10:37:12;;;;;;;7.60;5.80;;;12.80;92.50;;;;;;5005008;28;20483;-79
2023/05/01 10:39:38;;;;;;;7.72;5.47;;;12.60;93.60;;;;;;5017673;28;20042;-78
2023/05/01 10:42:09;;;;;;;6.40;5.80;;;12.70;93.70;;;;;;5026951;28;20018;-79
2023/05/01 10:44:36;;;;;;;7.03;6.30;;;12.70;93.70;;;;;;5011580;28;20026;-77
2023/05/01 10:47:30;;;;;;;8.00;7.20;;;12.60;93.90;;;;;;5030389;28;20347;-77
2023/05/01 10:50:08;;;;;;;9.45;7.40;;;12.50;94.30;;;;;;5041691;28;20045;-77
2023/05/01 10:53:08;;;;;;;8.00;6.88;;;12.30;94.80;;;;;;5041313;28;20025;-77
2023/05/01 10:55:35;;;;;;;9.32;6.95;;;12.20;95.30;;;;;;5049809;28;20113;-80
2023/05/01 10:58:00;;;;;;;8.27;7.32;;;12.00;95.90;;;;;;5036527;28;20021;-77
2023/05/01 11:00:26;;;;;;;9.73;7.60;;;12.00;96.50;;;;;;5035767;28;20112;-76
2023/05/01 11:03:11;;;;;;;7.22;5.40;;;11.90;96.90;;;;;;5035013;28;20033;-77
2023/05/01 11:05:59;;;;;;;7.25;6.45;;;11.90;98.00;;;;;;5015449;28;20374;-77
2023/05/01 11:08:38;;;;;;;7.15;6.43;;;12.00;98.00;;;;;;5025342;28;20026;-78
2023/05/01 11:11:18;;;;;;;10.40;7.50;;;12.00;98.10;;;;;;5014390;28;20044;-76
2023/05/01 11:14:04;;;;;;;6.43;5.78;;;12.00;98.10;;;;;;5025303;28;20049;-78
2023/05/01 11:16:39;;;;;;;7.72;6.65;;;12.00;98.40;;;;;;5033717;28;20041;-78
2023/05/01 11:19:06;;;;;;;6.57;5.85;;;12.00;98.60;;;;;;5025758;28;20026;-77
2023/05/01 11:21:33;;;;;;;7.13;6.07;;;12.00;99.00;;;;;;5021859;28;20034;-76
2023/05/01 11:24:00;;;;;;;15.13;11.13;;;12.10;99.30;;;;;;5020585;28;20091;-77
2023/05/01 11:26:28;;;;;;;9.60;8.48;;;12.10;98.80;;;;;;5016117;28;20029;-77
2023/05/01 11:28:55;;;;;;;8.75;7.80;;;12.10;99.20;;;;;;5001799;28;20382;-77
2023/05/01 11:31:21;;;;;;;8.68;7.78;;;12.00;99.20;;;;;;5005137;28;20447;-77
2023/05/01 11:33:47;;;;;;;8.23;7.32;;;12.00;99.40;;;;;;5025056;28;20017;-78
2023/05/01 11:36:13;;;;;;;9.73;7.25;;;11.80;99.70;;;;;;5002466;28;20026;-77
2023/05/01 11:38:55;;;;;;;7.35;6.13;;;11.80;99.90;;;;;;5015881;28;20022;-77
2023/05/01 11:41:22;;;;;;;8.00;6.50;;;11.90;99.90;;;;;;5001760;28;20449;-77
2023/05/01 11:43:52;;;;;;;6.10;5.40;;;11.80;99.90;;;;;;5027183;28;20115;-77
2023/05/01 11:46:29;;;;;;;5.63;4.65;;;11.90;99.90;;;;;;5016587;28;20021;-77
2023/05/01 11:49:04;;;;;;;6.80;6.10;;;12.00;99.90;;;;;;5026418;28;20052;-76
2023/05/01 11:51:30;;;;;;;6.10;5.50;;;12.00;99.90;;;;;;5047410;28;20116;-76
2023/05/01 11:54:00;;;;;;;6.22;5.63;;;12.10;99.90;;;;;;5048051;28;20041;-76
2023/05/01 11:56:26;;;;;;;7.55;6.28;;;12.20;99.90;;;;;;5051059;28;20010;-76
2023/05/01 11:58:54;;;;;;;7.53;6.38;;;12.30;99.90;;;;;;5049451;28;20041;-78
2023/05/01 12:01:19;;;;;;;7.25;5.82;;;12.50;99.90;;;;;;5045908;28;20017;-78
2023/05/01 12:03:45;;;;;;;6.93;6.20;;;12.70;99.90;;;;;;5034759;28;20080;-78
2023/05/01 12:06:12;;;;;;;9.30;6.57;;;13.00;99.90;;;;;;5025864;28;20026;-77
2023/05/01 12:08:43;;;;;;;8.00;7.13;;;13.30;99.90;;;;;;5015480;28;20415;-77
2023/05/01 12:11:09;;;;;;;6.53;5.75;;;13.40;98.90;;;;;;5018478;28;20041;-77
2023/05/01 12:13:35;;;;;;;7.97;6.45;;;13.60;98.70;;;;;;5018451;28;20502;-78
2023/05/01 12:16:03;;;;;;;7.22;5.88;;;13.70;98.50;;;;;;5033758;28;20419;-77
2023/05/01 12:18:28;;;;;;;7.28;5.95;;;13.80;98.50;;;;;;5032553;28;20032;-78
2023/05/01 12:20:55;;;;;;;7.97;7.18;;;13.80;98.40;;;;;;5033624;28;20029;-77
2023/05/01 12:23:36;;;;;;;7.22;5.70;;;14.00;97.50;;;;;;5032660;28;20208;-77
2023/05/01 12:26:14;;;;;;;6.55;5.40;;;14.10;97.40;;;;;;5033324;28;20026;-77
2023/05/01 12:29:03;;;;;;;6.82;5.43;;;14.30;97.00;;;;;;5034124;28;20028;-78
2023/05/01 12:31:29;;;;;;;5.72;5.13;;;14.40;96.50;;;;;;5037207;28;20021;-77
2023/05/01 12:33:57;;;;;;;6.35;5.60;;;14.30;96.00;;;;;;5036960;28;20477;-76
2023/05/01 12:36:24;;;;;;;6.95;5.85;;;14.30;96.10;;;;;;5039112;28;20028;-77
2023/05/01 12:39:08;;;;;;;5.57;4.95;;;14.20;95.90;;;;;;5034153;28;20033;-76
2023/05/01 12:41:44;;;;;;;3.60;3.30;;;14.10;96.20;;;;;;5034958;28;20104;-76
2023/05/01 12:44:29;;;;;;;6.50;5.30;;;14.00;96.30;;;;;;5035090;28;20021;-77
2023/05/01 12:47:06;;;;;;;4.93;4.43;;;14.00;96.20;;;;;;5043701;28;20041;-77
2023/05/01 12:49:35;;;;;;;5.30;4.80;;;14.20;96.30;;;;;;5038219;28;20467;-77
2023/05/01 12:52:02;;;;;;;5.57;4.57;;;14.30;95.90;;;;;;5035293;28;20084;-77
2023/05/01 12:54:30;;;;;;;5.20;4.70;;;14.60;95.30;;;;;;5039019;28;20112;-77
2023/05/01 12:57:25;;;;;;;3.85;3.55;;;14.90;95.00;;;;;;5043570;28;20335;-76